sensor_id;sensor_type;location;lat;lon;timestamp;temperature;humidity
4964;DHT22;2497;47.410;9.740;2022-10-12T00:01:39;13.60;99.90
4964;DHT22;2497;47.410;9.740;2022-10-12T00:04:07;13.60;99.90
4964;DHT22;2497;47.410;9.740;2022-10-12T00:06:34;13.60;99.90
4964;DHT22;2497;47.410;9.740;2022-10-12T00:09:02;13.60;99.90
4964;DHT22;2497;47.410;9.740;2022-10-12T00:11:47;13.60;99.90
4964;DHT22;2497;47.410;9.740;2022-10-12T00:14:14;13.60;99.90
4964;DHT22;2497;47.410;9.740;2022-10-12T00:16:44;13.60;99.90
4964;DHT22;2497;47.410;9.740;2022-10-12T00:19:12;13.70;99.90
4964;DHT22;2497;47.410;9.740;2022-10-12T00:21:39;13.70;99.90
4964;DHT22;2497;47.410;9.740;2022-10-12T00:24:08;13.70;99.90
4964;DHT22;2497;47.410;9.740;2022-10-12T00:26:36;13.60;99.90
4964;DHT22;2497;47.410;9.740;2022-10-12T00:29:03;13.70;99.90
4964;DHT22;2497;47.410;9.740;2022-10-12T00:31:31;13.70;99.90
4964;DHT22;2497;47.410;9.740;2022-10-12T00:34:00;13.70;99.90
4964;DHT22;2497;47.410;9.740;2022-10-12T00:36:30;13.60;99.90
4964;DHT22;2497;47.410;9.740;2022-10-12T00:38:59;13.60;99.90
4964;DHT22;2497;47.410;9.740;2022-10-12T00:41:29;13.60;99.90
4964;DHT22;2497;47.410;9.740;2022-10-12T00:43:57;13.50;99.90
4964;DHT22;2497;47.410;9.740;2022-10-12T00:46:29;13.50;99.90
4964;DHT22;2497;47.410;9.740;2022-10-12T00:49:07;13.50;99.90
4964;DHT22;2497;47.410;9.740;2022-10-12T00:51:37;13.50;99.90
4964;DHT22;2497;47.410;9.740;2022-10-12T00:54:10;13.50;99.90
4964;DHT22;2497;47.410;9.740;2022-10-12T00:56:39;13.60;99.90
4964;DHT22;2497;47.410;9.740;2022-10-12T00:59:10;13.50;99.90
4964;DHT22;2497;47.410;9.740;2022-10-12T01:01:38;13.50;99.90
4964;DHT22;2497;47.410;9.740;2022-10-12T01:04:08;13.50;99.90
4964;DHT22;2497;47.410;9.740;2022-10-12T01:06:35;13.50;99.90
4964;DHT22;2497;47.410;9.740;2022-10-12T01:09:03;13.50;99.90
4964;DHT22;2497;47.410;9.740;2022-10-12T01:11:31;13.50;99.90
4964;DHT22;2497;47.410;9.740;2022-10-12T01:13:58;13.50;99.90
4964;DHT22;2497;47.410;9.740;2022-10-12T01:16:31;13.50;99.90
4964;DHT22;2497;47.410;9.740;2022-10-12T01:19:08;13.50;99.90
4964;DHT22;2497;47.410;9.740;2022-10-12T01:21:45;13.50;99.90
4964;DHT22;2497;47.410;9.740;2022-10-12T01:24:38;13.50;99.90
4964;DHT22;2497;47.410;9.740;2022-10-12T01:27:23;13.50;99.90
4964;DHT22;2497;47.410;9.740;2022-10-12T01:30:19;13.50;99.90
4964;DHT22;2497;47.410;9.740;2022-10-12T01:33:05;13.50;99.90
4964;DHT22;2497;47.410;9.740;2022-10-12T01:35:41;13.50;99.90
4964;DHT22;2497;47.410;9.740;2022-10-12T01:38:23;13.50;99.90
4964;DHT22;2497;47.410;9.740;2022-10-12T01:40:58;13.50;99.90
4964;DHT22;2497;47.410;9.740;2022-10-12T01:43:33;13.50;99.90
4964;DHT22;2497;47.410;9.740;2022-10-12T01:46:37;13.50;99.90
4964;DHT22;2497;47.410;9.740;2022-10-12T01:49:05;13.50;99.90
4964;DHT22;2497;47.410;9.740;2022-10-12T01:51:39;13.50;99.90
4964;DHT22;2497;47.410;9.740;2022-10-12T01:54:19;13.50;99.90
4964;DHT22;2497;47.410;9.740;2022-10-12T01:56:54;13.50;99.90
4964;DHT22;2497;47.410;9.740;2022-10-12T01:59:30;13.50;99.90
4964;DHT22;2497;47.410;9.740;2022-10-12T02:02:06;13.50;99.90
4964;DHT22;2497;47.410;9.740;2022-10-12T02:04:45;13.50;99.90
4964;DHT22;2497;47.410;9.740;2022-10-12T02:07:21;13.40;99.90
4964;DHT22;2497;47.410;9.740;2022-10-12T02:09:53;13.40;99.90
4964;DHT22;2497;47.410;9.740;2022-10-12T02:12:23;13.30;99.90
4964;DHT22;2497;47.410;9.740;2022-10-12T02:14:56;13.40;99.90
4964;DHT22;2497;47.410;9.740;2022-10-12T02:17:26;13.30;99.90
4964;DHT22;2497;47.410;9.740;2022-10-12T02:19:56;13.30;99.90
4964;DHT22;2497;47.410;9.740;2022-10-12T02:22:27;13.30;99.90
4964;DHT22;2497;47.410;9.740;2022-10-12T02:25:00;13.30;99.90
4964;DHT22;2497;47.410;9.740;2022-10-12T02:27:29;13.30;99.90
4964;DHT22;2497;47.410;9.740;2022-10-12T02:29:58;13.20;99.90
4964;DHT22;2497;47.410;9.740;2022-10-12T02:32:28;13.20;99.90
4964;DHT22;2497;47.410;9.740;2022-10-12T02:35:04;13.20;99.90
4964;DHT22;2497;47.410;9.740;2022-10-12T02:37:38;13.30;99.90
4964;DHT22;2497;47.410;9.740;2022-10-12T02:40:11;13.30;99.90
4964;DHT22;2497;47.410;9.740;2022-10-12T02:42:47;13.30;99.90
4964;DHT22;2497;47.410;9.740;2022-10-12T02:45:16;13.30;99.90
4964;DHT22;2497;47.410;9.740;2022-10-12T02:47:46;13.30;99.90
4964;DHT22;2497;47.410;9.740;2022-10-12T02:50:14;13.30;99.90
4964;DHT22;2497;47.410;9.740;2022-10-12T02:52:43;13.30;99.90
4964;DHT22;2497;47.410;9.740;2022-10-12T02:55:11;13.30;99.90
4964;DHT22;2497;47.410;9.740;2022-10-12T02:57:38;13.30;99.90
4964;DHT22;2497;47.410;9.740;2022-10-12T03:00:07;13.30;99.90
4964;DHT22;2497;47.410;9.740;2022-10-12T03:02:35;13.30;99.90
4964;DHT22;2497;47.410;9.740;2022-10-12T03:05:06;13.30;99.90
4964;DHT22;2497;47.410;9.740;2022-10-12T03:07:34;13.30;99.90
4964;DHT22;2497;47.410;9.740;2022-10-12T03:10:01;13.30;99.90
4964;DHT22;2497;47.410;9.740;2022-10-12T03:12:29;13.30;99.90
4964;DHT22;2497;47.410;9.740;2022-10-12T03:14:56;13.30;99.90
4964;DHT22;2497;47.410;9.740;2022-10-12T03:17:23;13.30;99.90
4964;DHT22;2497;47.410;9.740;2022-10-12T03:19:50;13.30;99.90
4964;DHT22;2497;47.410;9.740;2022-10-12T03:22:20;13.30;99.90
4964;DHT22;2497;47.410;9.740;2022-10-12T03:24:47;13.30;99.90
4964;DHT22;2497;47.410;9.740;2022-10-12T03:27:14;13.30;99.90
4964;DHT22;2497;47.410;9.740;2022-10-12T03:29:42;13.30;99.90
4964;DHT22;2497;47.410;9.740;2022-10-12T03:32:10;13.20;99.90
4964;DHT22;2497;47.410;9.740;2022-10-12T03:34:37;13.30;99.90
4964;DHT22;2497;47.410;9.740;2022-10-12T03:37:04;13.30;99.90
4964;DHT22;2497;47.410;9.740;2022-10-12T03:39:33;13.30;99.90
4964;DHT22;2497;47.410;9.740;2022-10-12T03:42:01;13.30;99.90
4964;DHT22;2497;47.410;9.740;2022-10-12T03:44:28;13.30;99.90
4964;DHT22;2497;47.410;9.740;2022-10-12T03:46:56;13.30;99.90
4964;DHT22;2497;47.410;9.740;2022-10-12T03:49:23;13.30;99.90
4964;DHT22;2497;47.410;9.740;2022-10-12T03:51:51;13.20;99.90
4964;DHT22;2497;47.410;9.740;2022-10-12T03:54:18;13.20;99.90
4964;DHT22;2497;47.410;9.740;2022-10-12T03:56:46;13.20;99.90
4964;DHT22;2497;47.410;9.740;2022-10-12T03:59:13;13.30;99.90
4964;DHT22;2497;47.410;9.740;2022-10-12T04:01:41;13.30;99.90
4964;DHT22;2497;47.410;9.740;2022-10-12T04:04:09;13.20;99.90
4964;DHT22;2497;47.410;9.740;2022-10-12T04:06:36;13.20;99.90
4964;DHT22;2497;47.410;9.740;2022-10-12T04:09:04;13.30;99.90
4964;DHT22;2497;47.410;9.740;2022-10-12T04:11:31;13.30;99.90
4964;DHT22;2497;47.410;9.740;2022-10-12T04:14:00;13.20;99.90
4964;DHT22;2497;47.410;9.740;2022-10-12T04:16:27;13.20;99.90
4964;DHT22;2497;47.410;9.740;2022-10-12T04:18:55;13.30;99.90
4964;DHT22;2497;47.410;9.740;2022-10-12T04:21:23;13.40;99.90
4964;DHT22;2497;47.410;9.740;2022-10-12T04:23:51;13.30;99.90
4964;DHT22;2497;47.410;9.740;2022-10-12T04:26:18;13.40;99.90
4964;DHT22;2497;47.410;9.740;2022-10-12T04:28:46;13.30;99.90
4964;DHT22;2497;47.410;9.740;2022-10-12T04:31:15;13.30;99.90
4964;DHT22;2497;47.410;9.740;2022-10-12T04:33:43;13.40;99.90
4964;DHT22;2497;47.410;9.740;2022-10-12T04:36:10;13.40;99.90
4964;DHT22;2497;47.410;9.740;2022-10-12T04:38:37;13.30;99.90
4964;DHT22;2497;47.410;9.740;2022-10-12T04:41:05;13.30;99.90
4964;DHT22;2497;47.410;9.740;2022-10-12T04:43:32;13.30;99.90
4964;DHT22;2497;47.410;9.740;2022-10-12T04:46:00;13.30;99.90
4964;DHT22;2497;47.410;9.740;2022-10-12T04:48:29;13.30;99.90
4964;DHT22;2497;47.410;9.740;2022-10-12T04:50:57;13.30;99.90
4964;DHT22;2497;47.410;9.740;2022-10-12T04:53:24;13.30;99.90
4964;DHT22;2497;47.410;9.740;2022-10-12T04:55:52;13.20;99.90
4964;DHT22;2497;47.410;9.740;2022-10-12T04:58:19;13.20;99.90
4964;DHT22;2497;47.410;9.740;2022-10-12T05:00:48;13.20;99.90
4964;DHT22;2497;47.410;9.740;2022-10-12T05:03:15;13.20;99.90
4964;DHT22;2497;47.410;9.740;2022-10-12T05:05:45;13.20;99.90
4964;DHT22;2497;47.410;9.740;2022-10-12T05:08:12;13.20;99.90
4964;DHT22;2497;47.410;9.740;2022-10-12T05:10:39;13.20;99.90
4964;DHT22;2497;47.410;9.740;2022-10-12T05:13:07;13.20;99.90
4964;DHT22;2497;47.410;9.740;2022-10-12T05:15:35;13.20;99.90
4964;DHT22;2497;47.410;9.740;2022-10-12T05:18:03;13.20;99.90
4964;DHT22;2497;47.410;9.740;2022-10-12T05:20:31;13.30;99.90
4964;DHT22;2497;47.410;9.740;2022-10-12T05:23:01;13.30;99.90
4964;DHT22;2497;47.410;9.740;2022-10-12T05:25:28;13.30;99.90
4964;DHT22;2497;47.410;9.740;2022-10-12T05:27:56;13.30;99.90
4964;DHT22;2497;47.410;9.740;2022-10-12T05:30:23;13.20;99.90
4964;DHT22;2497;47.410;9.740;2022-10-12T05:32:51;13.20;99.90
4964;DHT22;2497;47.410;9.740;2022-10-12T05:35:18;13.20;99.90
4964;DHT22;2497;47.410;9.740;2022-10-12T05:37:46;13.20;99.90
4964;DHT22;2497;47.410;9.740;2022-10-12T05:40:15;13.20;99.90
4964;DHT22;2497;47.410;9.740;2022-10-12T05:42:42;13.30;99.90
4964;DHT22;2497;47.410;9.740;2022-10-12T05:45:10;13.30;99.90
4964;DHT22;2497;47.410;9.740;2022-10-12T05:47:39;13.20;99.90
4964;DHT22;2497;47.410;9.740;2022-10-12T05:50:07;13.20;99.90
4964;DHT22;2497;47.410;9.740;2022-10-12T05:52:35;13.20;99.90
4964;DHT22;2497;47.410;9.740;2022-10-12T05:55:07;13.20;99.90
4964;DHT22;2497;47.410;9.740;2022-10-12T05:57:38;13.20;99.90
4964;DHT22;2497;47.410;9.740;2022-10-12T06:00:07;13.20;99.90
4964;DHT22;2497;47.410;9.740;2022-10-12T06:02:34;13.30;99.90
4964;DHT22;2497;47.410;9.740;2022-10-12T06:05:03;13.20;99.90
4964;DHT22;2497;47.410;9.740;2022-10-12T06:07:30;13.30;99.90
4964;DHT22;2497;47.410;9.740;2022-10-12T06:09:58;13.30;99.90
4964;DHT22;2497;47.410;9.740;2022-10-12T06:12:25;13.30;99.90
4964;DHT22;2497;47.410;9.740;2022-10-12T06:14:55;13.30;99.90
4964;DHT22;2497;47.410;9.740;2022-10-12T06:17:22;13.30;99.90
4964;DHT22;2497;47.410;9.740;2022-10-12T06:19:50;13.30;99.90
4964;DHT22;2497;47.410;9.740;2022-10-12T06:22:17;13.30;99.90
4964;DHT22;2497;47.410;9.740;2022-10-12T06:24:44;13.30;99.90
4964;DHT22;2497;47.410;9.740;2022-10-12T06:27:12;13.30;99.90
4964;DHT22;2497;47.410;9.740;2022-10-12T06:29:39;13.30;99.90
4964;DHT22;2497;47.410;9.740;2022-10-12T06:32:08;13.40;99.90
4964;DHT22;2497;47.410;9.740;2022-10-12T06:34:36;13.40;99.90
4964;DHT22;2497;47.410;9.740;2022-10-12T06:37:03;13.40;99.90
4964;DHT22;2497;47.410;9.740;2022-10-12T06:39:31;13.40;99.90
4964;DHT22;2497;47.410;9.740;2022-10-12T06:41:59;13.40;99.90
4964;DHT22;2497;47.410;9.740;2022-10-12T06:44:26;13.40;99.90
4964;DHT22;2497;47.410;9.740;2022-10-12T06:46:53;13.40;99.90
4964;DHT22;2497;47.410;9.740;2022-10-12T06:49:22;13.50;99.90
4964;DHT22;2497;47.410;9.740;2022-10-12T06:51:50;13.50;99.90
4964;DHT22;2497;47.410;9.740;2022-10-12T06:54:18;13.60;99.90
4964;DHT22;2497;47.410;9.740;2022-10-12T06:56:46;13.60;99.90
4964;DHT22;2497;47.410;9.740;2022-10-12T06:59:13;13.50;99.90
4964;DHT22;2497;47.410;9.740;2022-10-12T07:01:40;13.60;99.90
4964;DHT22;2497;47.410;9.740;2022-10-12T07:04:08;13.50;99.90
4964;DHT22;2497;47.410;9.740;2022-10-12T07:06:37;13.60;99.90
4964;DHT22;2497;47.410;9.740;2022-10-12T07:09:04;13.60;99.90
4964;DHT22;2497;47.410;9.740;2022-10-12T07:11:31;13.70;99.90
4964;DHT22;2497;47.410;9.740;2022-10-12T07:13:59;13.70;99.90
4964;DHT22;2497;47.410;9.740;2022-10-12T07:16:26;13.80;99.90
4964;DHT22;2497;47.410;9.740;2022-10-12T07:18:53;13.90;99.90
4964;DHT22;2497;47.410;9.740;2022-10-12T07:21:21;13.90;99.90
4964;DHT22;2497;47.410;9.740;2022-10-12T07:23:51;14.00;99.90
4964;DHT22;2497;47.410;9.740;2022-10-12T07:26:18;14.00;99.90
4964;DHT22;2497;47.410;9.740;2022-10-12T07:28:47;14.00;99.90
4964;DHT22;2497;47.410;9.740;2022-10-12T07:31:14;13.90;99.90
4964;DHT22;2497;47.410;9.740;2022-10-12T07:33:41;14.00;99.90
4964;DHT22;2497;47.410;9.740;2022-10-12T07:36:09;14.00;99.90
4964;DHT22;2497;47.410;9.740;2022-10-12T07:38:37;14.00;99.90
4964;DHT22;2497;47.410;9.740;2022-10-12T07:41:07;14.00;99.90
4964;DHT22;2497;47.410;9.740;2022-10-12T07:43:35;13.90;99.90
4964;DHT22;2497;47.410;9.740;2022-10-12T07:46:03;14.00;99.90
4964;DHT22;2497;47.410;9.740;2022-10-12T07:48:31;14.00;99.90
4964;DHT22;2497;47.410;9.740;2022-10-12T07:51:02;14.00;99.90
4964;DHT22;2497;47.410;9.740;2022-10-12T07:53:30;14.10;99.90
4964;DHT22;2497;47.410;9.740;2022-10-12T07:56:07;14.10;99.90
4964;DHT22;2497;47.410;9.740;2022-10-12T07:58:39;14.10;99.90
4964;DHT22;2497;47.410;9.740;2022-10-12T08:01:08;14.10;99.90
4964;DHT22;2497;47.410;9.740;2022-10-12T08:03:35;14.10;99.90
4964;DHT22;2497;47.410;9.740;2022-10-12T08:06:08;14.10;99.90
4964;DHT22;2497;47.410;9.740;2022-10-12T08:08:35;14.10;99.90
4964;DHT22;2497;47.410;9.740;2022-10-12T08:11:07;14.10;99.90
4964;DHT22;2497;47.410;9.740;2022-10-12T08:13:35;14.20;99.90
4964;DHT22;2497;47.410;9.740;2022-10-12T08:16:03;14.20;99.90
4964;DHT22;2497;47.410;9.740;2022-10-12T08:18:31;14.20;99.90
4964;DHT22;2497;47.410;9.740;2022-10-12T08:20:59;14.30;99.90
4964;DHT22;2497;47.410;9.740;2022-10-12T08:23:30;14.30;99.90
4964;DHT22;2497;47.410;9.740;2022-10-12T08:25:57;14.50;99.90
4964;DHT22;2497;47.410;9.740;2022-10-12T08:28:26;14.50;99.90
4964;DHT22;2497;47.410;9.740;2022-10-12T08:30:53;14.60;99.90
4964;DHT22;2497;47.410;9.740;2022-10-12T08:33:21;14.70;99.90
4964;DHT22;2497;47.410;9.740;2022-10-12T08:35:48;14.70;99.90
4964;DHT22;2497;47.410;9.740;2022-10-12T08:38:15;14.60;99.90
4964;DHT22;2497;47.410;9.740;2022-10-12T08:40:48;14.60;99.90
4964;DHT22;2497;47.410;9.740;2022-10-12T08:43:28;14.70;99.90
4964;DHT22;2497;47.410;9.740;2022-10-12T08:46:00;14.80;99.90
4964;DHT22;2497;47.410;9.740;2022-10-12T08:48:33;14.90;99.90
4964;DHT22;2497;47.410;9.740;2022-10-12T08:51:04;14.80;99.90
4964;DHT22;2497;47.410;9.740;2022-10-12T08:53:38;14.90;99.90
4964;DHT22;2497;47.410;9.740;2022-10-12T08:56:07;14.90;99.90
4964;DHT22;2497;47.410;9.740;2022-10-12T08:58:37;15.10;99.90
4964;DHT22;2497;47.410;9.740;2022-10-12T09:01:13;15.20;99.90
4964;DHT22;2497;47.410;9.740;2022-10-12T09:03:50;15.30;99.90
4964;DHT22;2497;47.410;9.740;2022-10-12T09:06:21;15.30;99.90
4964;DHT22;2497;47.410;9.740;2022-10-12T09:08:58;15.30;99.90
4964;DHT22;2497;47.410;9.740;2022-10-12T09:11:41;15.40;99.90
4964;DHT22;2497;47.410;9.740;2022-10-12T09:14:17;15.50;99.90
4964;DHT22;2497;47.410;9.740;2022-10-12T09:16:46;15.60;99.90
4964;DHT22;2497;47.410;9.740;2022-10-12T09:19:17;15.70;99.90
4964;DHT22;2497;47.410;9.740;2022-10-12T09:21:47;15.90;99.90
4964;DHT22;2497;47.410;9.740;2022-10-12T09:24:18;15.80;99.90
4964;DHT22;2497;47.410;9.740;2022-10-12T09:26:49;15.60;99.90
4964;DHT22;2497;47.410;9.740;2022-10-12T09:29:24;15.70;99.90
4964;DHT22;2497;47.410;9.740;2022-10-12T09:32:04;15.90;99.90
4964;DHT22;2497;47.410;9.740;2022-10-12T09:34:37;16.10;99.90
4964;DHT22;2497;47.410;9.740;2022-10-12T09:37:05;16.00;99.90
4964;DHT22;2497;47.410;9.740;2022-10-12T09:39:34;16.10;99.90
4964;DHT22;2497;47.410;9.740;2022-10-12T09:42:03;16.10;99.90
4964;DHT22;2497;47.410;9.740;2022-10-12T09:44:35;16.20;99.90
4964;DHT22;2497;47.410;9.740;2022-10-12T09:47:06;16.30;99.90
4964;DHT22;2497;47.410;9.740;2022-10-12T09:49:49;16.00;99.90
4964;DHT22;2497;47.410;9.740;2022-10-12T09:52:19;15.90;99.90
4964;DHT22;2497;47.410;9.740;2022-10-12T09:54:49;15.70;99.90
4964;DHT22;2497;47.410;9.740;2022-10-12T09:57:18;15.50;99.90
4964;DHT22;2497;47.410;9.740;2022-10-12T09:59:48;15.60;99.90
4964;DHT22;2497;47.410;9.740;2022-10-12T10:02:17;15.60;99.90
4964;DHT22;2497;47.410;9.740;2022-10-12T10:04:47;15.60;99.90
4964;DHT22;2497;47.410;9.740;2022-10-12T10:07:26;15.60;99.90
4964;DHT22;2497;47.410;9.740;2022-10-12T10:10:14;15.80;99.90
4964;DHT22;2497;47.410;9.740;2022-10-12T10:12:47;15.90;99.90
4964;DHT22;2497;47.410;9.740;2022-10-12T10:15:23;15.90;99.90
4964;DHT22;2497;47.410;9.740;2022-10-12T10:17:54;15.80;99.90
4964;DHT22;2497;47.410;9.740;2022-10-12T10:20:28;15.70;99.90
4964;DHT22;2497;47.410;9.740;2022-10-12T10:22:57;15.60;99.90
4964;DHT22;2497;47.410;9.740;2022-10-12T10:25:25;15.70;99.90
4964;DHT22;2497;47.410;9.740;2022-10-12T10:28:09;15.80;99.90
4964;DHT22;2497;47.410;9.740;2022-10-12T10:30:38;15.70;99.90
4964;DHT22;2497;47.410;9.740;2022-10-12T10:33:12;15.70;99.90
4964;DHT22;2497;47.410;9.740;2022-10-12T10:35:50;15.70;99.90
4964;DHT22;2497;47.410;9.740;2022-10-12T10:38:19;15.80;99.90
4964;DHT22;2497;47.410;9.740;2022-10-12T10:40:50;15.80;99.90
4964;DHT22;2497;47.410;9.740;2022-10-12T10:43:20;15.80;99.90
4964;DHT22;2497;47.410;9.740;2022-10-12T10:45:55;15.80;99.90
4964;DHT22;2497;47.410;9.740;2022-10-12T10:48:28;15.80;99.90
4964;DHT22;2497;47.410;9.740;2022-10-12T10:50:58;15.90;99.90
4964;DHT22;2497;47.410;9.740;2022-10-12T10:53:30;16.00;99.90
4964;DHT22;2497;47.410;9.740;2022-10-12T10:56:04;16.10;99.90
4964;DHT22;2497;47.410;9.740;2022-10-12T10:58:36;16.10;99.90
4964;DHT22;2497;47.410;9.740;2022-10-12T11:01:14;16.10;99.90
4964;DHT22;2497;47.410;9.740;2022-10-12T11:03:51;16.10;99.90
4964;DHT22;2497;47.410;9.740;2022-10-12T11:06:28;16.20;99.90
4964;DHT22;2497;47.410;9.740;2022-10-12T11:09:02;16.20;99.90
4964;DHT22;2497;47.410;9.740;2022-10-12T11:11:33;16.20;99.90
4964;DHT22;2497;47.410;9.740;2022-10-12T11:14:05;16.30;99.90
4964;DHT22;2497;47.410;9.740;2022-10-12T11:16:38;16.30;99.90
4964;DHT22;2497;47.410;9.740;2022-10-12T11:19:18;16.20;99.90
4964;DHT22;2497;47.410;9.740;2022-10-12T11:21:51;16.10;99.90
4964;DHT22;2497;47.410;9.740;2022-10-12T11:24:24;16.10;99.90
4964;DHT22;2497;47.410;9.740;2022-10-12T11:26:56;16.20;99.90
4964;DHT22;2497;47.410;9.740;2022-10-12T11:29:26;16.30;99.90
4964;DHT22;2497;47.410;9.740;2022-10-12T11:32:00;16.40;99.90
4964;DHT22;2497;47.410;9.740;2022-10-12T11:34:34;16.50;99.90
4964;DHT22;2497;47.410;9.740;2022-10-12T11:37:15;16.50;99.90
4964;DHT22;2497;47.410;9.740;2022-10-12T11:39:47;16.60;99.90
4964;DHT22;2497;47.410;9.740;2022-10-12T11:42:22;16.60;99.90
4964;DHT22;2497;47.410;9.740;2022-10-12T11:44:51;16.60;99.90
4964;DHT22;2497;47.410;9.740;2022-10-12T11:47:26;16.80;99.90
4964;DHT22;2497;47.410;9.740;2022-10-12T11:49:59;16.90;99.90
4964;DHT22;2497;47.410;9.740;2022-10-12T11:52:34;16.90;99.90
4964;DHT22;2497;47.410;9.740;2022-10-12T11:55:19;17.00;99.90
4964;DHT22;2497;47.410;9.740;2022-10-12T11:57:50;16.90;99.90
4964;DHT22;2497;47.410;9.740;2022-10-12T12:00:22;17.00;99.90
4964;DHT22;2497;47.410;9.740;2022-10-12T12:02:55;17.00;99.90
4964;DHT22;2497;47.410;9.740;2022-10-12T12:05:30;16.70;99.90
4964;DHT22;2497;47.410;9.740;2022-10-12T12:07:58;16.80;99.90
4964;DHT22;2497;47.410;9.740;2022-10-12T12:11:04;16.70;99.90
4964;DHT22;2497;47.410;9.740;2022-10-12T12:13:31;16.70;99.90
4964;DHT22;2497;47.410;9.740;2022-10-12T12:16:20;16.80;99.90
4964;DHT22;2497;47.410;9.740;2022-10-12T12:22:16;16.80;99.90
4964;DHT22;2497;47.410;9.740;2022-10-12T12:24:51;16.90;99.90
4964;DHT22;2497;47.410;9.740;2022-10-12T12:27:21;16.70;99.90
4964;DHT22;2497;47.410;9.740;2022-10-12T12:29:50;16.60;99.90
4964;DHT22;2497;47.410;9.740;2022-10-12T12:32:19;16.60;99.90
4964;DHT22;2497;47.410;9.740;2022-10-12T12:34:51;16.60;99.90
4964;DHT22;2497;47.410;9.740;2022-10-12T12:37:22;16.50;99.90
4964;DHT22;2497;47.410;9.740;2022-10-12T12:39:54;16.60;99.90
4964;DHT22;2497;47.410;9.740;2022-10-12T12:42:25;16.70;99.90
4964;DHT22;2497;47.410;9.740;2022-10-12T12:44:57;16.80;99.90
4964;DHT22;2497;47.410;9.740;2022-10-12T12:47:42;16.80;99.90
4964;DHT22;2497;47.410;9.740;2022-10-12T12:50:32;16.80;99.90
4964;DHT22;2497;47.410;9.740;2022-10-12T12:53:05;16.60;99.90
4964;DHT22;2497;47.410;9.740;2022-10-12T12:55:58;16.60;99.90
4964;DHT22;2497;47.410;9.740;2022-10-12T12:58:51;16.40;99.90
4964;DHT22;2497;47.410;9.740;2022-10-12T13:01:43;16.40;99.90
4964;DHT22;2497;47.410;9.740;2022-10-12T13:04:25;16.40;99.90
4964;DHT22;2497;47.410;9.740;2022-10-12T13:10:12;16.40;99.90
4964;DHT22;2497;47.410;9.740;2022-10-12T13:13:03;16.40;99.90
4964;DHT22;2497;47.410;9.740;2022-10-12T13:15:51;16.40;99.90
4964;DHT22;2497;47.410;9.740;2022-10-12T13:18:46;16.40;99.90
4964;DHT22;2497;47.410;9.740;2022-10-12T13:21:20;16.40;99.90
4964;DHT22;2497;47.410;9.740;2022-10-12T13:23:51;16.40;99.90
4964;DHT22;2497;47.410;9.740;2022-10-12T13:26:24;16.40;99.90
4964;DHT22;2497;47.410;9.740;2022-10-12T13:28:54;16.40;99.90
4964;DHT22;2497;47.410;9.740;2022-10-12T13:31:26;16.50;99.90
4964;DHT22;2497;47.410;9.740;2022-10-12T13:34:04;16.40;99.90
4964;DHT22;2497;47.410;9.740;2022-10-12T13:36:45;16.40;99.90
4964;DHT22;2497;47.410;9.740;2022-10-12T13:39:16;16.40;99.90
4964;DHT22;2497;47.410;9.740;2022-10-12T13:41:45;16.50;99.90
4964;DHT22;2497;47.410;9.740;2022-10-12T13:44:23;16.40;99.90
4964;DHT22;2497;47.410;9.740;2022-10-12T13:46:52;16.50;99.90
4964;DHT22;2497;47.410;9.740;2022-10-12T13:49:22;16.40;99.90
4964;DHT22;2497;47.410;9.740;2022-10-12T13:51:52;16.40;99.90
4964;DHT22;2497;47.410;9.740;2022-10-12T13:54:22;16.40;99.90
4964;DHT22;2497;47.410;9.740;2022-10-12T13:56:54;16.40;99.90
4964;DHT22;2497;47.410;9.740;2022-10-12T13:59:24;16.40;99.90
4964;DHT22;2497;47.410;9.740;2022-10-12T14:01:57;16.40;99.90
4964;DHT22;2497;47.410;9.740;2022-10-12T14:04:27;16.40;99.90
4964;DHT22;2497;47.410;9.740;2022-10-12T14:07:00;16.40;99.90
4964;DHT22;2497;47.410;9.740;2022-10-12T14:09:35;16.40;99.90
4964;DHT22;2497;47.410;9.740;2022-10-12T14:12:08;16.40;99.90
4964;DHT22;2497;47.410;9.740;2022-10-12T14:14:38;16.40;99.90
4964;DHT22;2497;47.410;9.740;2022-10-12T14:17:11;16.40;99.90
4964;DHT22;2497;47.410;9.740;2022-10-12T14:19:45;16.40;99.90
4964;DHT22;2497;47.410;9.740;2022-10-12T14:22:19;16.30;99.90
4964;DHT22;2497;47.410;9.740;2022-10-12T14:24:47;16.40;99.90
4964;DHT22;2497;47.410;9.740;2022-10-12T14:27:23;16.40;99.90
4964;DHT22;2497;47.410;9.740;2022-10-12T14:29:55;16.30;99.90
4964;DHT22;2497;47.410;9.740;2022-10-12T14:32:38;16.30;99.90
4964;DHT22;2497;47.410;9.740;2022-10-12T14:35:20;16.30;99.90
4964;DHT22;2497;47.410;9.740;2022-10-12T14:37:49;16.30;99.90
4964;DHT22;2497;47.410;9.740;2022-10-12T14:40:38;16.20;99.90
4964;DHT22;2497;47.410;9.740;2022-10-12T14:43:20;16.30;99.90
4964;DHT22;2497;47.410;9.740;2022-10-12T14:45:49;16.20;99.90
4964;DHT22;2497;47.410;9.740;2022-10-12T14:48:19;16.20;99.90
4964;DHT22;2497;47.410;9.740;2022-10-12T14:50:48;16.30;99.90
4964;DHT22;2497;47.410;9.740;2022-10-12T14:53:16;16.10;99.90
4964;DHT22;2497;47.410;9.740;2022-10-12T14:55:43;16.00;99.90
4964;DHT22;2497;47.410;9.740;2022-10-12T14:58:15;16.10;99.90
4964;DHT22;2497;47.410;9.740;2022-10-12T15:00:43;16.00;99.90
4964;DHT22;2497;47.410;9.740;2022-10-12T15:03:11;16.00;99.90
4964;DHT22;2497;47.410;9.740;2022-10-12T15:05:39;16.00;99.90
4964;DHT22;2497;47.410;9.740;2022-10-12T15:08:07;16.00;99.90
4964;DHT22;2497;47.410;9.740;2022-10-12T15:10:35;16.00;99.90
4964;DHT22;2497;47.410;9.740;2022-10-12T15:13:02;15.90;99.90
4964;DHT22;2497;47.410;9.740;2022-10-12T15:15:35;15.80;99.90
4964;DHT22;2497;47.410;9.740;2022-10-12T15:18:04;15.70;99.90
4964;DHT22;2497;47.410;9.740;2022-10-12T15:20:32;15.70;99.90
4964;DHT22;2497;47.410;9.740;2022-10-12T15:23:00;15.70;99.90
4964;DHT22;2497;47.410;9.740;2022-10-12T15:25:37;15.60;99.90
4964;DHT22;2497;47.410;9.740;2022-10-12T15:28:06;15.70;99.90
4964;DHT22;2497;47.410;9.740;2022-10-12T15:30:34;15.70;99.90
4964;DHT22;2497;47.410;9.740;2022-10-12T15:33:02;15.60;99.90
4964;DHT22;2497;47.410;9.740;2022-10-12T15:35:32;15.70;99.90
4964;DHT22;2497;47.410;9.740;2022-10-12T15:38:01;15.60;99.90
4964;DHT22;2497;47.410;9.740;2022-10-12T15:40:30;15.60;99.90
4964;DHT22;2497;47.410;9.740;2022-10-12T15:42:59;15.80;99.90
4964;DHT22;2497;47.410;9.740;2022-10-12T15:45:30;15.60;99.90
4964;DHT22;2497;47.410;9.740;2022-10-12T15:48:00;15.40;99.90
4964;DHT22;2497;47.410;9.740;2022-10-12T15:50:34;15.40;99.90
4964;DHT22;2497;47.410;9.740;2022-10-12T15:53:03;15.40;99.90
4964;DHT22;2497;47.410;9.740;2022-10-12T15:55:31;15.40;99.90
4964;DHT22;2497;47.410;9.740;2022-10-12T15:57:59;15.40;99.90
4964;DHT22;2497;47.410;9.740;2022-10-12T16:00:28;15.50;99.90
4964;DHT22;2497;47.410;9.740;2022-10-12T16:03:00;15.50;99.90
4964;DHT22;2497;47.410;9.740;2022-10-12T16:05:30;15.40;99.90
4964;DHT22;2497;47.410;9.740;2022-10-12T16:07:58;15.40;99.90
4964;DHT22;2497;47.410;9.740;2022-10-12T16:10:28;15.30;99.90
4964;DHT22;2497;47.410;9.740;2022-10-12T16:12:57;15.30;99.90
4964;DHT22;2497;47.410;9.740;2022-10-12T16:15:26;15.30;99.90
4964;DHT22;2497;47.410;9.740;2022-10-12T16:17:55;15.30;99.90
4964;DHT22;2497;47.410;9.740;2022-10-12T16:20:25;15.30;99.90
4964;DHT22;2497;47.410;9.740;2022-10-12T16:22:53;15.20;99.90
4964;DHT22;2497;47.410;9.740;2022-10-12T16:25:23;15.10;99.90
4964;DHT22;2497;47.410;9.740;2022-10-12T16:27:51;15.10;99.90
4964;DHT22;2497;47.410;9.740;2022-10-12T16:30:19;15.10;99.90
4964;DHT22;2497;47.410;9.740;2022-10-12T16:32:47;15.00;99.90
4964;DHT22;2497;47.410;9.740;2022-10-12T16:35:14;15.10;99.90